Data for 12/23/2010

Time Sea-Level Adjusted Pressure Absolute Pressure Temperature Relative Humidity Dew Point   
(mb) (inHg) (mb) (inHg) (C) (F) (%) (C) (F)
00:05 1014 29.94 844 24.92 -6 21.1 94 -6.8 19.8
00:10 1014 29.94 844 24.92 -5.8 21.5 94 -6.6 20.1
00:15 1014 29.94 844 24.92 -5.7 21.7 94 -6.5 20.3
00:20 1014 29.94 844 24.92 -5.6 21.9 94 -6.4 20.5
00:25 1014 29.94 844 24.92 -5.5 22.1 94 -6.3 20.6
00:30 1014 29.94 844 24.92 -5.4 22.2 94 -6.3 20.7
00:35 1014 29.94 843 24.89 -5.4 22.2 94 -6.2 20.8
00:40 1014 29.94 843 24.89 -5.4 22.2 94 -6.3 20.7
00:45 1014 29.94 843 24.89 -5.4 22.3 94 -6.2 20.8
00:50 1014 29.94 843 24.89 -5.4 22.2 94 -6.2 20.8
00:55 1014 29.94 843 24.89 -5.4 22.2 94 -6.2 20.8
01:00 1014 29.94 843 24.89 -5.4 22.3 95 -6.1 20.9
01:05 1014 29.94 843 24.89 -5.2 22.6 94 -6 21.2
01:10 1014 29.94 843 24.89 -5.1 22.7 94 -6 21.3
01:15 1014 29.94 843 24.89 -5.1 22.9 94 -5.9 21.4
01:20 1014 29.94 843 24.89 -4.9 23.1 94 -5.8 21.6
01:25 1014 29.94 844 24.92 -4.9 23.2 94 -5.7 21.7
01:30 1014 29.94 844 24.92 -4.8 23.4 94 -5.6 21.8
01:35 1014 29.94 844 24.92 -4.7 23.6 93 -5.6 21.9
01:40 1014 29.94 844 24.92 -4.7 23.5 93 -5.7 21.8
01:45 1014 29.94 844 24.92 -4.8 23.3 93 -5.8 21.6
01:50 1015 29.97 844 24.92 -4.9 23.2 93 -5.8 21.5
01:55 1015 29.97 844 24.92 -4.9 23.1 92 -6 21.2
02:00 1015 29.97 844 24.92 -5 22.9 92 -6.1 21
02:05 1015 29.97 844 24.92 -5.1 22.8 92 -6.2 20.9
02:10 1015 29.97 844 24.92 -5.2 22.6 92 -6.3 20.6
02:15 1015 29.97 844 24.92 -5.4 22.3 92 -6.5 20.4
02:20 1015 29.97 844 24.92 -5.5 22.2 92 -6.5 20.3
02:25 1015 29.97 844 24.92 -5.6 22 93 -6.6 20.2
02:30 1015 29.97 844 24.92 -5.5 22 93 -6.5 20.3
02:35 1015 29.97 844 24.92 -5.5 22.1 93 -6.5 20.4
02:40 1015 29.97 844 24.92 -5.5 22.1 93 -6.5 20.3
02:45 1015 29.97 844 24.92 -5.5 22.1 93 -6.4 20.5
02:50 1015 29.97 844 24.92 -5.4 22.2 93 -6.4 20.5
02:55 1015 29.97 844 24.92 -5.4 22.2 93 -6.3 20.6
03:00 1015 29.97 844 24.92 -5.4 22.4 93 -6.4 20.5
03:05 1015 29.97 844 24.92 -5.5 22.2 92 -6.5 20.3
03:10 1015 29.97 844 24.92 -5.7 21.7 93 -6.6 20.1
03:15 1015 29.97 845 24.95 -5.7 21.7 94 -6.5 20.2
03:20 1015 29.97 845 24.95 -5.4 22.3 94 -6.3 20.7
03:25 1016 30 845 24.95 -5.2 22.6 92 -6.3 20.7
03:30 1016 30 845 24.95 -5.2 22.7 92 -6.3 20.7
03:35 1016 30 845 24.95 -5.1 22.8 92 -6.3 20.7
03:40 1016 30 845 24.95 -5.1 22.8 91 -6.4 20.6
03:45 1016 30 845 24.95 -5.4 22.4 92 -6.5 20.4
03:50 1016 30 845 24.95 -5.4 22.2 93 -6.5 20.4
03:55 1016 30 845 24.95 -5.5 22.2 93 -6.4 20.4
04:00 1016 30 845 24.95 -5.4 22.3 93 -6.3 20.6
04:05 1016 30 845 24.95 -5.4 22.3 93 -6.4 20.5
04:10 1016 30 845 24.95 -5.5 22.1 93 -6.4 20.4
04:15 1016 30 845 24.95 -5.5 22.1 93 -6.4 20.4
04:20 1016 30 845 24.95 -5.5 22.1 94 -6.4 20.6
04:25 1016 30 845 24.95 -5.4 22.3 94 -6.3 20.7
04:30 1016 30 845 24.95 -5.3 22.4 94 -6.2 20.8
04:35 1016 30 845 24.95 -5.2 22.6 93 -6.1 21
04:40 1016 30 845 24.95 -5.2 22.6 93 -6.1 21
04:45 1016 30 845 24.95 -5.1 22.8 93 -6.1 21.1
04:50 1016 30 845 24.95 -5 23 92 -6 21.1
04:55 1016 30 845 24.95 -5 22.9 93 -6.1 21.1
05:00 1016 30 845 24.95 -5 23.1 92 -6 21.1
05:05 1016 30 845 24.95 -4.8 23.3 92 -5.9 21.3
05:10 1016 30 846 24.98 -4.8 23.3 92 -6 21.2
05:15 1016 30 846 24.98 -5 23 92 -6 21.1
05:20 1016 30 846 24.98 -5 23 93 -6 21.1
05:25 1017 30.03 846 24.98 -4.9 23.2 92 -5.9 21.3
05:30 1017 30.03 846 24.98 -4.7 23.6 92 -5.8 21.5
05:35 1017 30.03 846 24.98 -4.6 23.8 91 -5.8 21.6
05:40 1017 30.03 846 24.98 -4.5 23.9 91 -5.8 21.6
05:45 1017 30.03 846 24.98 -4.5 24 90 -5.8 21.6
05:50 1017 30.03 846 24.98 -4.5 24 90 -5.8 21.6
05:55 1017 30.03 846 24.98 -4.6 23.7 90 -5.9 21.3
06:00 1017 30.03 846 24.98 -4.9 23.2 92 -6 21.2
06:05 1017 30.03 846 24.98 -4.9 23.2 92 -6 21.2
06:10 1017 30.03 847 25.01 -4.9 23.2 92 -6 21.2
06:15 1017 30.03 847 25.01 -4.9 23.3 92 -5.9 21.3
06:20 1017 30.03 847 25.01 -4.8 23.4 92 -5.9 21.4
06:25 1018 30.06 847 25.01 -4.8 23.4 92 -5.9 21.4
06:30 1018 30.06 847 25.01 -4.6 23.7 91 -5.9 21.4
06:35 1018 30.06 847 25.01 -4.6 23.7 90 -6 21.2
06:40 1018 30.06 847 25.01 -4.9 23.2 92 -6.1 21.1
06:45 1018 30.06 847 25.01 -5 22.9 93 -6 21.1
06:50 1018 30.06 847 25.01 -4.9 23.2 93 -5.9 21.4
06:55 1018 30.06 847 25.01 -4.7 23.6 92 -5.8 21.6
07:00 1018 30.06 847 25.01 -4.5 23.9 91 -5.7 21.7
07:05 1018 30.06 847 25.01 -4.5 24 91 -5.7 21.7
07:10 1018 30.06 847 25.01 -4.5 24 91 -5.8 21.6
07:15 1018 30.06 847 25.01 -4.5 23.8 91 -5.8 21.6
07:20 1018 30.06 847 25.01 -4.6 23.8 91 -5.8 21.6
07:25 1018 30.06 847 25.01 -4.6 23.6 92 -5.8 21.5
07:30 1018 30.06 847 25.01 -4.6 23.7 92 -5.8 21.6
07:35 1018 30.06 847 25.01 -4.6 23.6 92 -5.8 21.6
07:40 1018 30.06 847 25.01 -4.7 23.6 92 -5.7 21.7
07:45 1018 30.06 847 25.01 -4.6 23.7 93 -5.6 21.9
07:50 1018 30.06 847 25.01 -4.5 23.8 92 -5.6 21.9
07:55 1018 30.06 847 25.01 -4.6 23.7 92 -5.7 21.8
08:00 1018 30.06 847 25.01 -4.6 23.7 93 -5.6 21.9
08:05 1018 30.06 847 25.01 -4.6 23.7 93 -5.5 22
08:10 1018 30.06 847 25.01 -4.6 23.7 94 -5.5 22.2
08:15 1018 30.06 847 25.01 -4.5 23.9 94 -5.4 22.3
08:20 1018 30.06 847 25.01 -4.5 24 94 -5.3 22.5
08:25 1018 30.06 847 25.01 -4.4 24.1 94 -5.3 22.5
08:30 1018 30.06 847 25.01 -4.2 24.4 93 -5.2 22.7
08:35 1018 30.06 847 25.01 -4.1 24.6 93 -5.1 22.8
08:40 1018 30.06 847 25.01 -4 24.7 92 -5.1 22.8
08:45 1018 30.06 847 25.01 -3.9 24.9 92 -5.1 22.9
08:50 1018 30.06 847 25.01 -3.8 25.1 92 -5 23.1
08:55 1018 30.06 847 25.01 -3.7 25.4 93 -4.7 23.6
09:00 1018 30.06 847 25.01 -3.5 25.8 93 -4.5 23.9
09:05 1018 30.06 847 25.01 -3.3 26.1 93 -4.3 24.3
09:10 1018 30.06 847 25.01 -3.1 26.5 93 -4 24.8
09:15 1018 30.06 847 25.01 -3 26.7 93 -3.9 25
09:20 1018 30.06 847 25.01 -2.8 26.9 93 -3.7 25.3
09:25 1018 30.06 847 25.01 -2.7 27.2 93 -3.7 25.3
09:30 1018 30.06 848 25.04 -2.6 27.3 92 -3.7 25.3
09:35 1018 30.06 848 25.04 -2.3 27.8 91 -3.5 25.6
09:40 1019 30.09 848 25.04 -2.1 28.3 90 -3.5 25.7
09:45 1019 30.09 848 25.04 -1.9 28.5 89 -3.5 25.8
09:50 1019 30.09 848 25.04 -1.7 28.9 88 -3.5 25.7
09:55 1019 30.09 848 25.04 -1.7 28.9 85 -3.9 25
10:00 1019 30.09 848 25.04 -2.1 28.3 85 -4.3 24.3
10:05 1019 30.09 848 25.04 -2.2 28.1 82 -4.9 23.2
10:10 1019 30.09 848 25.04 -3 26.6 85 -5.2 22.7
10:15 1019 30.09 848 25.04 -3.6 25.5 85 -5.7 21.7
10:20 1019 30.09 848 25.04 -4.2 24.5 87 -6 21.2
10:25 1019 30.09 848 25.04 -4.4 24.1 88 -6 21.2
10:30 1019 30.09 848 25.04 -4.3 24.3 89 -5.8 21.6
10:35 1019 30.09 848 25.04 -3.7 25.3 86 -5.7 21.8
10:40 1019 30.09 848 25.04 -3.2 26.2 84 -5.6 21.9
10:45 1019 30.09 849 25.07 -2.9 26.9 82 -5.4 22.2
10:50 1019 30.09 848 25.04 -2.8 27 82 -5.3 22.4
10:55 1019 30.09 849 25.07 -2.7 27.1 82 -5.4 22.2
11:00 1019 30.09 849 25.07 -2.6 27.3 82 -5.2 22.6
11:05 1019 30.09 849 25.07 -2.3 27.8 81 -5.2 22.6
11:10 1019 30.09 849 25.07 -2.2 28.1 81 -4.9 23.2
11:15 1019 30.09 849 25.07 -1.9 28.6 82 -4.6 23.7
11:20 1019 30.09 849 25.07 -1.8 28.8 79 -4.9 23.2
11:25 1019 30.09 849 25.07 -1.7 29 80 -4.8 23.4
11:30 1020 30.12 849 25.07 -1.6 29.2 80 -4.6 23.8
11:35 1020 30.12 849 25.07 -1.6 29.1 79 -4.8 23.4
11:40 1020 30.12 849 25.07 -1.7 28.9 81 -4.6 23.7
11:45 1019 30.09 849 25.07 -1.8 28.8 81 -4.6 23.7
11:50 1020 30.12 849 25.07 -1.9 28.7 81 -4.6 23.7
11:55 1020 30.12 849 25.07 -2.1 28.2 83 -4.6 23.7
12:00 1019 30.09 849 25.07 -2.1 28.3 81 -4.8 23.3
12:05 1019 30.09 849 25.07 -2.6 27.4 88 -4.3 24.3
12:10 1020 30.12 849 25.07 -2.1 28.2 85 -4.3 24.3
12:15 1019 30.09 849 25.07 -1.6 29.1 81 -4.4 24
12:20 1019 30.09 849 25.07 -1.9 28.5 83 -4.4 24.1
12:25 1019 30.09 849 25.07 -1.7 29 82 -4.4 24
12:30 1019 30.09 849 25.07 -1.6 29.1 82 -4.3 24.3
12:35 1019 30.09 849 25.07 -2 28.4 84 -4.3 24.2
12:40 1019 30.09 849 25.07 -1.5 29.3 82 -4.2 24.5
12:45 1019 30.09 849 25.07 -0.8 30.5 79 -4 24.8
12:50 1019 30.09 849 25.07 -0.5 31.2 78 -3.8 25.2
12:55 1019 30.09 849 25.07 -0.3 31.5 75 -4.1 24.6
13:00 1019 30.09 849 25.07 -0.5 31 79 -3.7 25.4
13:05 1019 30.09 849 25.07 -1.1 30 81 -4 24.8
13:10 1019 30.09 849 25.07 -0.8 30.5 79 -4 24.8
13:15 1019 30.09 849 25.07 -0.5 31.1 78 -3.9 24.9
13:20 1019 30.09 849 25.07 -1 30.2 81 -3.9 25.1
13:25 1019 30.09 849 25.07 -1.4 29.5 82 -4.1 24.6
13:30 1019 30.09 849 25.07 -0.9 30.4 80 -3.9 24.9
13:35 1019 30.09 849 25.07 -1.3 29.7 83 -3.9 25.1
13:40 1019 30.09 849 25.07 -1.6 29.1 84 -4 24.9
13:45 1019 30.09 849 25.07 -1.4 29.5 82 -4.1 24.7
13:50 1019 30.09 849 25.07 -1.1 30 80 -4.1 24.7
13:55 1019 30.09 848 25.04 0 32.1 74 -4 24.8
14:00 1019 30.09 848 25.04 0.3 32.5 75 -3.7 25.4
14:05 1019 30.09 849 25.07 0.4 32.8 74 -3.6 25.5
14:10 1019 30.09 849 25.07 0.9 33.6 72 -3.7 25.4
14:15 1019 30.09 849 25.07 1.6 35 68 -3.6 25.6
14:20 1019 30.09 849 25.07 2.3 36.1 66 -3.4 25.9
14:25 1020 30.12 849 25.07 2.4 36.3 65 -3.6 25.6
14:30 1020 30.12 849 25.07 3.1 37.6 63 -3.3 26
14:35 1020 30.12 849 25.07 3.1 37.5 63 -3.2 26.2
14:40 1020 30.12 849 25.07 2.9 37.3 63 -3.4 25.8
14:45 1020 30.12 849 25.07 3.1 37.6 63 -3.2 26.2
14:50 1020 30.12 849 25.07 3.1 37.6 63 -3.3 26.1
14:55 1020 30.12 849 25.07 2.9 37.2 66 -2.8 26.9
15:00 1020 30.12 849 25.07 2.1 35.7 71 -2.7 27.1
15:05 1020 30.12 849 25.07 1.4 34.5 72 -3 26.6
15:10 1020 30.12 849 25.07 1.4 34.5 72 -3.1 26.4
15:15 1020 30.12 850 25.1 1.2 34.2 72 -3.3 26.1
15:20 1020 30.12 850 25.1 1.4 34.5 72 -3.1 26.4
15:25 1020 30.12 850 25.1 1.3 34.4 73 -2.9 26.7
15:30 1020 30.12 850 25.1 0.7 33.2 76 -3.2 26.3
15:35 1020 30.12 850 25.1 0.8 33.5 73 -3.5 25.8
15:40 1020 30.12 850 25.1 0.5 32.9 75 -3.5 25.8
15:45 1020 30.12 850 25.1 0.4 32.7 75 -3.4 25.8
15:50 1020 30.12 850 25.1 0.3 32.6 75 -3.6 25.6
15:55 1020 30.12 850 25.1 -0.1 31.9 78 -3.5 25.7
16:00 1020 30.12 850 25.1 -0.7 30.8 81 -3.5 25.6
16:05 1021 30.15 850 25.1 -0.6 31 79 -3.8 25.1
16:10 1021 30.15 850 25.1 -0.3 31.4 78 -3.7 25.3
16:15 1021 30.15 850 25.1 -0.6 30.9 80 -3.7 25.3
16:20 1021 30.15 850 25.1 -1 30.2 81 -3.9 25
16:25 1021 30.15 850 25.1 -0.7 30.7 78 -4.1 24.6
16:30 1021 30.15 850 25.1 -0.7 30.7 79 -3.9 25
16:35 1021 30.15 850 25.1 -0.8 30.5 80 -3.9 25
16:40 1021 30.15 850 25.1 -1.2 29.9 82 -3.9 25
16:45 1021 30.15 850 25.1 -1.3 29.6 82 -3.9 24.9
16:50 1021 30.15 850 25.1 -1.6 29.2 84 -3.9 25
16:55 1021 30.15 850 25.1 -1.7 28.9 84 -4.1 24.6
17:00 1021 30.15 850 25.1 -1.9 28.6 84 -4.2 24.5
17:05 1021 30.15 850 25.1 -2 28.4 85 -4.1 24.6
17:10 1021 30.15 850 25.1 -2.1 28.2 86 -4.2 24.4
17:15 1021 30.15 850 25.1 -2.3 27.9 86 -4.3 24.2
17:20 1021 30.15 850 25.1 -2.6 27.4 88 -4.3 24.2
17:25 1021 30.15 850 25.1 -2.6 27.4 88 -4.3 24.3
17:30 1021 30.15 850 25.1 -2.6 27.3 88 -4.4 24.2
17:35 1021 30.15 850 25.1 -2.6 27.3 88 -4.3 24.2
17:40 1021 30.15 850 25.1 -2.6 27.3 87 -4.4 24
17:45 1021 30.15 850 25.1 -2.5 27.5 86 -4.5 23.9
17:50 1021 30.15 851 25.13 -2.2 28 85 -4.3 24.2
17:55 1021 30.15 851 25.13 -2.2 28 86 -4.2 24.4
18:00 1021 30.15 851 25.13 -2.2 28 86 -4.3 24.2
18:05 1021 30.15 851 25.13 -2.4 27.8 84 -4.7 23.6
18:10 1021 30.15 851 25.13 -2.7 27.2 86 -4.8 23.4
18:15 1021 30.15 851 25.13 -2.6 27.4 83 -5.1 22.8
18:20 1021 30.15 851 25.13 -1.9 28.5 80 -5 23
18:25 1022 30.18 851 25.13 -2.3 27.9 80 -5.3 22.5
18:30 1022 30.18 851 25.13 -3 26.6 83 -5.4 22.2
18:35 1022 30.18 851 25.13 -3.1 26.4 83 -5.6 21.9
18:40 1022 30.18 851 25.13 -3.3 26 85 -5.5 22.1
18:45 1022 30.18 851 25.13 -3 26.6 84 -5.3 22.5
18:50 1022 30.18 851 25.13 -2.6 27.3 84 -5.1 22.9
18:55 1022 30.18 851 25.13 -2.8 27 84 -5.2 22.7
19:00 1022 30.18 851 25.13 -2.9 26.7 83 -5.4 22.3
19:05 1022 30.18 851 25.13 -3.1 26.5 83 -5.5 22.1
19:10 1022 30.18 851 25.13 -3.2 26.2 84 -5.6 21.9
19:15 1022 30.18 851 25.13 -3.4 25.9 85 -5.6 21.9
19:20 1022 30.18 851 25.13 -3.4 26 83 -5.8 21.6
19:25 1022 30.18 851 25.13 -3.2 26.2 82 -5.8 21.5
19:30 1022 30.18 851 25.13 -3.3 26.1 82 -6 21.2
19:35 1022 30.18 851 25.13 -3.3 26 83 -5.8 21.5
19:40 1022 30.18 851 25.13 -3.3 26.1 83 -5.7 21.7
19:45 1022 30.18 851 25.13 -3.4 25.9 84 -5.8 21.6
19:50 1022 30.18 852 25.16 -3.5 25.8 83 -5.9 21.4
19:55 1022 30.18 852 25.16 -3.3 26 82 -5.9 21.3
20:00 1022 30.18 852 25.16 -3.2 26.3 81 -5.9 21.4
20:05 1022 30.18 852 25.16 -3.1 26.4 79 -6.2 20.8
20:10 1022 30.18 852 25.16 -3.3 26.1 79 -6.4 20.4
20:15 1022 30.18 852 25.16 -3.6 25.6 80 -6.5 20.3
20:20 1022 30.18 852 25.16 -3.8 25.1 82 -6.5 20.3
20:25 1022 30.18 852 25.16 -4.1 24.5 83 -6.6 20.2
20:30 1022 30.18 852 25.16 -4.4 24.1 85 -6.5 20.3
20:35 1023 30.21 852 25.16 -4 24.7 84 -6.4 20.5
20:40 1023 30.21 852 25.16 -4 24.9 83 -6.4 20.5
20:45 1023 30.21 852 25.16 -4.1 24.7 86 -6.1 21.1
20:50 1023 30.21 852 25.16 -4.1 24.6 87 -5.9 21.3
20:55 1023 30.21 852 25.16 -4 24.8 85 -6.1 21
21:00 1023 30.21 852 25.16 -3.8 25.3 83 -6.2 20.9
21:05 1023 30.21 852 25.16 -3.9 25 85 -6 21.2
21:10 1023 30.21 852 25.16 -3.9 25 84 -6.2 20.8
21:15 1023 30.21 852 25.16 -4.1 24.6 84 -6.4 20.4
21:20 1023 30.21 852 25.16 -4.3 24.2 87 -6.2 20.8
21:25 1023 30.21 852 25.16 -4 24.7 86 -6.1 21.1
21:30 1023 30.21 852 25.16 -4 24.7 87 -5.9 21.4
21:35 1023 30.21 852 25.16 -3.9 24.9 85 -6.1 21.1
21:40 1023 30.21 852 25.16 -4.2 24.4 85 -6.4 20.6
21:45 1023 30.21 852 25.16 -4.4 24.2 86 -6.4 20.5
21:50 1023 30.21 852 25.16 -4.1 24.6 86 -6.2 20.9
21:55 1023 30.21 852 25.16 -3.9 25 83 -6.3 20.6
22:00 1023 30.21 852 25.16 -4.2 24.5 86 -6.2 20.9
22:05 1023 30.21 852 25.16 -4 24.9 80 -6.9 19.6
22:10 1023 30.21 852 25.16 -4.7 23.6 86 -6.7 20
22:15 1023 30.21 852 25.16 -4 24.7 81 -6.8 19.8
22:20 1023 30.21 852 25.16 -3.8 25.1 80 -6.8 19.8
22:25 1023 30.21 852 25.16 -4.4 24 83 -6.9 19.6
22:30 1023 30.21 852 25.16 -4.5 23.9 83 -7 19.3
22:35 1023 30.21 852 25.16 -4.6 23.8 82 -7.2 19.1
22:40 1023 30.21 852 25.16 -4.7 23.6 81 -7.4 18.6
22:45 1023 30.21 852 25.16 -4.9 23.2 79 -7.9 17.7
22:50 1023 30.21 852 25.16 -4.7 23.5 79 -7.8 18
22:55 1023 30.21 852 25.16 -4.7 23.5 82 -7.4 18.7
23:00 1023 30.21 852 25.16 -4.7 23.5 82 -7.3 18.8
23:05 1023 30.21 852 25.16 -4.8 23.4 84 -7.1 19.2
23:10 1023 30.21 852 25.16 -4.7 23.5 83 -7.2 19.1
23:15 1023 30.21 853 25.19 -4.8 23.3 83 -7.2 19
23:20 1023 30.21 853 25.19 -4.7 23.6 84 -7 19.5
23:25 1023 30.21 853 25.19 -4.4 24.2 82 -7 19.4
23:30 1023 30.21 853 25.19 -4.3 24.2 82 -6.9 19.5
23:35 1023 30.21 853 25.19 -4.6 23.8 82 -7.1 19.1
23:40 1023 30.21 853 25.19 -4.8 23.4 84 -7.1 19.3
23:45 1023 30.21 853 25.19 -5.2 22.7 83 -7.6 18.4
23:50 1023 30.21 853 25.19 -5.7 21.7 85 -7.8 17.9
23:55 1023 30.21 853 25.19 -6 21.3 86 -7.9 17.7
24:00 1023 30.21 853 25.19 -5.7 21.7 84 -7.9 17.7